Time;durP1;ratioP1;P1;durP2;ratioP2;P2;SDS_P1;SDS_P2;PMS_P1;PMS_P2;Temp;Humidity;BMP_temperature;BMP_pressure;BME280_temperature;BME280_humidity;BME280_pressure;Samples;Min_cycle;Max_cycle;Signal;HPM_P1;HPM_P2
2022/12/16 00:00:30;;;;;;;65.93;23.08;;;;;;;-3.24;100.00;91494.97;2074447;28;20022;-89
2022/12/16 00:01:31;;;;;;;103.88;22.92;;;;;;;-3.33;100.00;91500.56;2090812;28;20040;-89
2022/12/16 00:02:32;;;;;;;62.40;24.17;;;;;;;-3.34;100.00;91491.94;2090763;28;20449;-90
2022/12/16 00:03:33;;;;;;;62.55;23.38;;;;;;;-3.27;100.00;91501.69;2074292;28;20026;-90
2022/12/16 00:04:34;;;;;;;68.70;23.60;;;;;;;-3.32;100.00;91500.16;2066252;28;20034;-90
2022/12/16 00:05:36;;;;;;;83.10;24.55;;;;;;;-3.30;100.00;91495.31;2074461;28;20124;-91
2022/12/16 00:06:37;;;;;;;161.40;24.17;;;;;;;-3.25;100.00;91498.69;2082308;28;20025;-90
2022/12/16 00:07:38;;;;;;;101.63;23.17;;;;;;;-3.21;100.00;91502.81;2082519;28;20056;-91
2022/12/16 00:08:39;;;;;;;80.68;23.95;;;;;;;-3.30;100.00;91495.31;2074340;28;20764;-90
2022/12/16 00:09:58;;;;;;;87.75;22.98;;;;;;;-3.37;100.00;91494.56;2082531;28;20025;-90
2022/12/16 00:11:00;;;;;;;100.45;23.30;;;;;;;-3.36;100.00;91498.66;2099016;28;20134;-90
2022/12/16 00:12:01;;;;;;;101.43;24.75;;;;;;;-3.34;100.00;91494.56;2082351;28;20021;-90
2022/12/16 00:13:02;;;;;;;97.05;22.83;;;;;;;-3.34;100.00;91494.56;2066238;28;20019;-90
2022/12/16 00:14:03;;;;;;;89.72;23.80;;;;;;;-3.33;100.00;91497.94;2066192;28;20018;-90
2022/12/16 00:15:04;;;;;;;95.00;24.23;;;;;;;-3.37;100.00;91495.31;2074258;28;20025;-88
2022/12/16 00:16:11;;;;;;;111.00;24.27;;;;;;;-3.36;100.00;91496.06;2090458;28;20076;-88
2022/12/16 00:17:12;;;;;;;102.38;24.08;;;;;;;-3.40;100.00;91496.03;2090207;28;20211;-88
2022/12/16 00:18:13;;;;;;;88.60;23.70;;;;;;;-3.39;100.00;91488.94;2074217;28;20022;-88
2022/12/16 00:19:14;;;;;;;61.85;23.70;;;;;;;-3.40;100.00;91495.28;2074192;28;20022;-90
2022/12/16 00:20:15;;;;;;;72.00;24.65;;;;;;;-3.34;100.00;91491.94;2082098;28;20028;-87
2022/12/16 00:21:17;;;;;;;77.80;24.60;;;;;;;-3.40;100.00;91495.28;2074083;28;20026;-89
2022/12/16 00:22:18;;;;;;;136.95;25.50;;;;;;;-3.39;100.00;91491.56;2066186;28;20037;-88
2022/12/16 00:23:19;;;;;;;76.78;24.67;;;;;;;-3.40;100.00;91490.81;2074092;28;20043;-87
2022/12/16 00:24:20;;;;;;;86.22;24.63;;;;;;;-3.35;100.00;91498.28;2081994;28;20021;-88
2022/12/16 00:25:21;;;;;;;103.00;24.60;;;;;;;-3.38;100.00;91490.44;2073962;28;20072;-89
2022/12/16 00:26:22;;;;;;;113.18;25.73;;;;;;;-3.49;100.00;91494.88;2065864;28;20062;-88
2022/12/16 00:27:23;;;;;;;60.40;23.08;;;;;;;-3.40;100.00;91495.28;2073867;28;20117;-87
2022/12/16 00:28:25;;;;;;;123.65;23.80;;;;;;;-3.50;100.00;91496.00;2073893;28;20022;-90
2022/12/16 00:29:26;;;;;;;72.57;25.20;;;;;;;-3.42;100.00;91503.50;2066152;28;20112;-87
2022/12/16 00:30:49;;;;;;;92.88;24.52;;;;;;;-3.45;100.00;91503.47;2082426;28;20494;-89
2022/12/16 00:31:51;;;;;;;52.78;22.65;;;;;;;-3.37;100.00;91508.38;2090338;28;20025;-88
2022/12/16 00:32:51;;;;;;;52.72;24.35;;;;;;;-3.37;100.00;91512.84;2082367;28;20025;-88
2022/12/16 00:33:57;;;;;;;59.00;23.42;;;;;;;-3.39;100.00;91509.84;2081905;28;20021;-88
2022/12/16 00:34:58;;;;;;;52.80;24.10;;;;;;;-3.30;100.00;91510.25;2074784;28;20022;-88
2022/12/16 00:35:59;;;;;;;49.97;23.65;;;;;;;-3.22;100.00;91511.75;2065838;28;20503;-88
2022/12/16 00:37:00;;;;;;;64.32;23.80;;;;;;;-3.22;100.00;91517.00;2074048;28;20029;-90
2022/12/16 00:38:01;;;;;;;116.13;23.85;;;;;;;-3.29;100.00;91511.75;2073965;28;20042;-89
2022/12/16 00:39:02;;;;;;;57.63;23.95;;;;;;;-3.31;100.00;91506.88;2074119;28;20026;-89
2022/12/16 00:40:04;;;;;;;62.30;23.90;;;;;;;-3.25;100.00;91511.75;2081522;28;20026;-87
2022/12/16 00:41:05;;;;;;;69.25;23.35;;;;;;;-3.34;100.00;91507.63;2074047;28;20026;-89
2022/12/16 00:42:06;;;;;;;63.45;23.15;;;;;;;-3.31;100.00;91511.38;2090435;28;20024;-89
2022/12/16 00:43:07;;;;;;;53.67;23.35;;;;;;;-3.35;100.00;91508.00;2096102;28;20086;-90
2022/12/16 00:44:08;;;;;;;54.05;23.08;;;;;;;-3.28;100.00;91508.03;2090351;28;20407;-88
2022/12/16 00:45:09;;;;;;;102.32;23.73;;;;;;;-3.44;100.00;91510.94;2090489;28;20378;-88
2022/12/16 00:46:10;;;;;;;116.10;24.52;;;;;;;-3.40;100.00;91508.34;2098535;28;20024;-89
2022/12/16 00:47:11;;;;;;;98.05;24.63;;;;;;;-3.47;100.00;91509.06;2098723;28;20071;-88
2022/12/16 00:48:12;;;;;;;77.20;25.65;;;;;;;-3.49;100.00;91513.16;2098459;28;20040;-88
2022/12/16 00:49:13;;;;;;;123.60;23.83;;;;;;;-3.51;100.00;91499.72;2082144;28;20112;-88
2022/12/16 00:50:14;;;;;;;98.60;25.15;;;;;;;-3.48;100.00;91507.56;2089879;28;20017;-88
2022/12/16 00:51:15;;;;;;;61.83;23.73;;;;;;;-3.46;100.00;91507.22;2090294;28;20589;-88
2022/12/16 00:52:16;;;;;;;55.25;23.58;;;;;;;-3.46;100.00;91507.22;2090272;28;20079;-89
2022/12/16 00:53:17;;;;;;;58.15;23.75;;;;;;;-3.44;100.00;91510.19;2090238;28;20074;-89
2022/12/16 00:54:18;;;;;;;51.17;23.92;;;;;;;-3.36;100.00;91512.47;2073859;28;20450;-88
2022/12/16 00:55:19;;;;;;;60.67;25.35;;;;;;;-3.37;100.00;91510.22;2082146;28;20478;-89
2022/12/16 00:56:20;;;;;;;57.00;24.60;;;;;;;-3.33;100.00;91508.38;2089987;28;20032;-89
2022/12/16 00:57:21;;;;;;;60.75;24.25;;;;;;;-3.37;100.00;91516.19;2082082;28;20017;-88
2022/12/16 00:58:22;;;;;;;52.92;23.27;;;;;;;-3.38;100.00;91513.94;2090137;28;20025;-88
2022/12/16 00:59:23;;;;;;;73.35;23.75;;;;;;;-3.40;100.00;91514.31;2081710;28;20048;-88
2022/12/16 01:00:25;;;;;;;51.58;25.20;;;;;;;-3.25;100.00;91514.34;2073624;28;20022;-87
2022/12/16 01:01:26;;;;;;;51.45;23.40;;;;;;;-3.37;100.00;91512.84;2083703;28;20521;-87
2022/12/16 01:02:26;;;;;;;58.45;24.25;;;;;;;-3.42;100.00;91513.94;2081706;28;20026;-88
2022/12/16 01:03:30;;;;;;;58.70;24.17;;;;;;;-3.41;100.00;91512.81;2073788;28;20018;-88
2022/12/16 01:04:30;;;;;;;63.70;23.23;;;;;;;-3.40;100.00;91510.97;2082339;28;20036;-88
2022/12/16 01:05:31;;;;;;;69.55;22.58;;;;;;;-3.42;100.00;91518.44;2090128;28;20094;-88
2022/12/16 01:06:32;;;;;;;61.75;23.13;;;;;;;-3.34;100.00;91515.44;2081653;28;20021;-89
2022/12/16 01:07:34;;;;;;;76.07;24.92;;;;;;;-3.34;100.00;91517.31;2089996;28;20021;-88
2022/12/16 01:08:35;;;;;;;53.55;24.33;;;;;;;-3.32;100.00;91522.94;2090012;28;20482;-88
2022/12/16 01:09:36;;;;;;;56.38;24.05;;;;;;;-3.19;100.00;91520.75;2081718;28;20029;-89
2022/12/16 01:10:37;;;;;;;65.93;24.25;;;;;;;-3.21;100.00;91521.09;2089792;28;20040;-88
2022/12/16 01:11:38;;;;;;;55.22;23.83;;;;;;;-3.27;100.00;91529.66;2102400;28;20354;-89
2022/12/16 01:12:39;;;;;;;55.90;23.83;;;;;;;-3.26;100.00;91525.94;2089952;28;20024;-89
2022/12/16 01:13:40;;;;;;;93.20;23.63;;;;;;;-3.37;100.00;91520.69;2073784;28;20028;-88
2022/12/16 01:14:41;;;;;;;72.03;22.73;;;;;;;-3.36;100.00;91522.91;2081838;28;20044;-89
2022/12/16 01:15:42;;;;;;;93.45;24.35;;;;;;;-3.40;100.00;91516.19;2089819;28;20021;-88
2022/12/16 01:16:42;;;;;;;81.80;24.40;;;;;;;-3.36;100.00;91516.94;2089926;28;20021;-88
2022/12/16 01:17:44;;;;;;;53.05;23.30;;;;;;;-3.30;100.00;91521.44;2090069;28;20051;-88
2022/12/16 01:18:45;;;;;;;53.47;23.80;;;;;;;-3.37;100.00;91520.69;2081797;28;20022;-88
2022/12/16 01:19:46;;;;;;;57.65;23.02;;;;;;;-3.36;100.00;91520.31;2083447;28;20013;-88
2022/12/16 01:20:47;;;;;;;61.97;23.67;;;;;;;-3.45;100.00;91519.91;2078313;28;20018;-87
2022/12/16 01:21:48;;;;;;;50.30;22.70;;;;;;;-3.44;100.00;91525.88;2073373;28;20038;-88
2022/12/16 01:22:49;;;;;;;55.15;23.55;;;;;;;-3.38;100.00;91525.16;2081783;28;20387;-88
2022/12/16 01:24:02;;;;;;;69.13;23.38;;;;;;;-3.31;100.00;91524.44;2081579;28;20033;-89
2022/12/16 01:25:04;;;;;;;56.30;23.60;;;;;;;-3.24;100.00;91523.72;2083201;28;20029;-89
2022/12/16 01:26:05;;;;;;;44.42;22.20;;;;;;;-3.26;100.00;91526.69;2073890;28;20034;-89
2022/12/16 01:27:06;;;;;;;46.13;23.20;;;;;;;-3.23;100.00;91530.44;2081959;28;20065;-89
2022/12/16 01:28:07;;;;;;;44.53;22.50;;;;;;;-3.20;100.00;91530.44;2090077;28;20544;-89
2022/12/16 01:29:08;;;;;;;50.45;22.65;;;;;;;-3.27;100.00;91538.25;2098031;28;20028;-88
2022/12/16 01:30:10;;;;;;;53.03;21.75;;;;;;;-3.30;100.00;91529.28;2089518;28;20501;-88
2022/12/16 01:31:11;;;;;;;56.70;22.42;;;;;;;-3.36;100.00;91530.00;2081788;28;20395;-89
2022/12/16 01:32:13;;;;;;;44.30;22.27;;;;;;;-3.38;100.00;91534.84;2073585;28;20028;-89
2022/12/16 01:33:14;;;;;;;42.90;21.95;;;;;;;-3.36;100.00;91543.06;2081973;28;20029;-89
2022/12/16 01:34:15;;;;;;;50.08;22.67;;;;;;;-3.40;100.00;91543.06;2098089;28;20521;-88
2022/12/16 01:35:17;;;;;;;46.20;23.13;;;;;;;-3.37;100.00;91538.97;2089951;28;20207;-88
2022/12/16 01:36:18;;;;;;;49.17;23.50;;;;;;;-3.35;100.00;91540.06;2081799;28;20025;-89
2022/12/16 01:37:20;;;;;;;54.45;22.92;;;;;;;-3.44;100.00;91539.66;2081988;28;20026;-88
2022/12/16 01:38:21;;;;;;;53.47;22.55;;;;;;;-3.43;100.00;91540.41;2092735;28;20082;-89
2022/12/16 01:39:24;;;;;;;47.28;22.15;;;;;;;-3.48;100.00;91538.91;2081420;28;20181;-88
2022/12/16 01:40:25;;;;;;;55.70;21.88;;;;;;;-3.52;100.00;91538.13;2073598;28;20475;-89
2022/12/16 01:41:25;;;;;;;43.72;21.65;;;;;;;-3.47;100.00;91543.00;2073572;28;20689;-89
2022/12/16 01:42:29;;;;;;;48.38;23.15;;;;;;;-3.52;100.00;91534.78;2089781;28;20062;-88
2022/12/16 01:43:33;;;;;;;43.90;22.25;;;;;;;-3.48;100.00;91546.00;2073842;28;20574;-89
2022/12/16 01:44:34;;;;;;;43.38;22.23;;;;;;;-3.47;100.00;91544.88;2065964;28;20029;-88
2022/12/16 01:45:35;;;;;;;46.00;24.02;;;;;;;-3.39;100.00;91541.94;2073530;28;20511;-89
2022/12/16 01:46:37;;;;;;;49.90;21.25;;;;;;;-3.46;100.00;91556.84;2082342;28;20543;-88
2022/12/16 01:47:38;;;;;;;43.58;21.88;;;;;;;-3.40;100.00;91555.38;2081694;28;20103;-88
2022/12/16 01:49:17;;;;;;;42.47;22.33;;;;;;;-3.43;100.00;91545.63;2081470;28;20021;-89
2022/12/16 01:50:19;;;;;;;42.03;21.15;;;;;;;-3.53;100.00;91556.78;2078501;28;20116;-89
2022/12/16 01:51:37;;;;;;;44.10;22.02;;;;;;;-3.37;100.00;91554.63;2079791;28;20056;-89
2022/12/16 01:52:44;;;;;;;39.25;21.88;;;;;;;-3.49;100.00;91558.31;2083945;28;20029;-88
2022/12/16 01:53:50;;;;;;;41.60;21.17;;;;;;;-3.53;100.00;91554.19;2075326;28;20105;-88
2022/12/16 01:54:57;;;;;;;42.20;21.48;;;;;;;-3.56;100.00;91559.03;2082678;28;20025;-89
2022/12/16 01:55:59;;;;;;;52.50;22.08;;;;;;;-3.55;100.00;91557.16;2083118;28;20028;-90
2022/12/16 01:57:05;;;;;;;41.30;21.73;;;;;;;-3.51;100.00;91562.38;2090250;28;20025;-89
2022/12/16 01:58:17;;;;;;;41.30;21.80;;;;;;;-3.45;100.00;91566.16;2098261;28;20024;-89
2022/12/16 01:59:20;;;;;;;48.50;20.35;;;;;;;-3.48;100.00;91564.28;2091196;28;20048;-89
2022/12/16 02:00:21;;;;;;;40.28;20.65;;;;;;;-3.60;100.00;91567.94;2090178;28;20576;-89
2022/12/16 02:01:22;;;;;;;37.50;19.67;;;;;;;-3.60;100.00;91571.31;2081598;28;20040;-89
2022/12/16 02:02:23;;;;;;;41.72;21.13;;;;;;;-3.65;100.00;91571.63;2081737;28;20119;-89
2022/12/16 02:03:25;;;;;;;43.60;22.60;;;;;;;-3.57;100.00;91575.78;2081628;28;20036;-90
2022/12/16 02:04:25;;;;;;;42.58;21.90;;;;;;;-3.61;100.00;91576.88;2089663;28;20020;-91
2022/12/16 02:05:28;;;;;;;42.78;21.85;;;;;;;-3.63;100.00;91582.47;2098219;28;20020;-90
2022/12/16 02:06:30;;;;;;;42.65;22.20;;;;;;;-3.61;100.00;91572.41;2081747;28;20471;-89
2022/12/16 02:07:32;;;;;;;45.25;21.48;;;;;;;-3.59;100.00;91575.41;2083010;28;20071;-90
2022/12/16 02:08:33;;;;;;;40.53;21.33;;;;;;;-3.56;100.00;91577.31;2089782;28;20492;-89
2022/12/16 02:09:34;;;;;;;40.63;21.95;;;;;;;-3.59;100.00;91579.91;2081714;28;20035;-90
2022/12/16 02:10:35;;;;;;;35.80;19.85;;;;;;;-3.64;100.00;91577.63;2081529;28;20103;-88
2022/12/16 02:11:41;;;;;;;37.33;21.42;;;;;;;-3.63;100.00;91566.06;2089730;28;20024;-89
2022/12/16 02:13:36;;;;;;;41.28;21.52;;;;;;;-3.65;100.00;91576.88;2098792;28;20048;-89
2022/12/16 02:15:18;;;;;;;35.65;18.42;;;;;;;-3.61;100.00;91571.66;2096464;28;20032;-89
2022/12/16 02:28:08;;;;;;;;;;;;;;;-3.83;100.00;91578.63;2615392;22;20424;-83
2022/12/16 02:29:39;;;;;;;36.55;20.52;;;;;;;-3.81;100.00;91579.03;2589314;23;20284;-83
2022/12/16 02:31:09;;;;;;;35.25;19.88;;;;;;;-3.88;100.00;91590.16;2574133;23;20004;-84
2022/12/16 02:32:18;;;;;;;35.28;18.88;;;;;;;-3.90;100.00;91584.56;2571815;23;20008;-84
2022/12/16 02:33:42;;;;;;;38.03;19.83;;;;;;;-3.83;100.00;91589.81;2565296;23;20012;-86
2022/12/16 02:35:06;;;;;;;38.13;18.98;;;;;;;-3.87;100.00;91590.91;2570106;23;20058;-83
2022/12/16 02:36:29;;;;;;;38.88;19.10;;;;;;;-3.85;100.00;91580.84;2569822;23;20004;-83
2022/12/16 02:38:07;;;;;;;35.45;18.67;;;;;;;-3.79;100.00;91582.00;2589988;22;20544;-86
2022/12/16 02:39:31;;;;;;;35.03;18.75;;;;;;;-3.76;100.00;91589.13;2582679;23;20454;-83
2022/12/16 02:40:47;;;;;;;40.45;20.27;;;;;;;-3.71;100.00;91594.00;2568814;23;20079;-87
2022/12/16 02:42:16;;;;;;;35.17;19.05;;;;;;;-3.68;100.00;91589.91;2576230;23;20082;-85
2022/12/16 02:43:42;;;;;;;37.17;19.45;;;;;;;-3.69;100.00;91594.38;2574205;23;20619;-86
2022/12/16 02:45:11;;;;;;;35.80;19.45;;;;;;;-3.65;100.00;91600.38;2570838;23;20344;-86
2022/12/16 02:46:16;;;;;;;34.53;19.30;;;;;;;-3.67;100.00;91601.84;2579326;23;20051;-83
2022/12/16 02:47:25;;;;;;;37.17;18.60;;;;;;;-3.70;100.00;91599.97;2574198;23;20429;-84
2022/12/16 02:48:32;;;;;;;35.63;19.98;;;;;;;-3.70;100.00;91595.47;2563916;23;20008;-84
2022/12/16 02:49:33;;;;;;;40.53;21.05;;;;;;;-3.65;100.00;91602.22;2563079;23;20013;-86
2022/12/16 02:50:41;;;;;;;38.00;20.92;;;;;;;-3.61;100.00;91598.53;2566862;23;20021;-82
2022/12/16 02:51:48;;;;;;;36.10;20.63;;;;;;;-3.54;100.00;91605.66;2570014;23;20052;-82
2022/12/16 02:52:53;;;;;;;38.45;21.33;;;;;;;-3.54;100.00;91605.66;2568331;23;20040;-85
2022/12/16 02:54:10;;;;;;;33.60;19.60;;;;;;;-3.52;100.00;91608.66;2561401;23;20001;-84
2022/12/16 02:55:19;;;;;;;34.10;19.77;;;;;;;-3.27;100.00;91614.00;2564818;23;19989;-85
2022/12/16 02:56:44;;;;;;;36.53;19.33;;;;;;;-3.34;100.00;91616.56;2553098;23;20421;-87
2022/12/16 02:57:59;;;;;;;;;;;;;;;-3.36;100.00;91616.94;2562108;23;20008;-85
2022/12/16 02:59:48;;;;;;;38.03;18.13;;;;;;;-3.39;100.00;91609.09;2554349;23;19904;-85
2022/12/16 03:01:43;;;;;;;30.77;16.55;;;;;;;-3.38;100.00;91608.75;2586619;23;20015;-83
2022/12/16 03:03:22;;;;;;;35.60;18.30;;;;;;;-3.36;100.00;91613.59;2572296;23;20016;-83
2022/12/16 03:04:38;;;;;;;32.58;17.40;;;;;;;-3.46;100.00;91615.03;2568908;23;20000;-86
2022/12/16 03:05:47;;;;;;;39.78;18.55;;;;;;;-3.45;100.00;91613.91;2558009;23;20009;-83
2022/12/16 03:07:11;;;;;;;32.63;19.10;;;;;;;-3.52;100.00;91613.88;2559643;23;20054;-84
2022/12/16 03:08:40;;;;;;;33.22;18.52;;;;;;;-3.52;100.00;91611.25;2554961;23;20058;-86
2022/12/16 03:09:52;;;;;;;37.28;19.20;;;;;;;-3.45;100.00;91613.91;2563353;23;20011;-84
2022/12/16 03:11:09;;;;;;;35.55;19.15;;;;;;;-3.48;100.00;91619.88;2563704;23;20005;-87
2022/12/16 03:12:29;;;;;;;31.55;18.30;;;;;;;-3.57;100.00;91612.34;2556133;23;20011;-85
2022/12/16 03:13:41;;;;;;;33.65;18.63;;;;;;;-3.63;100.00;91613.06;2563904;23;20011;-86
2022/12/16 03:15:09;;;;;;;33.28;18.83;;;;;;;-3.67;100.00;91609.69;2574900;23;20015;-86
2022/12/16 03:16:16;;;;;;;32.85;18.73;;;;;;;-3.55;100.00;91614.63;2566061;23;20067;-82
2022/12/16 03:17:27;;;;;;;35.53;19.48;;;;;;;-3.63;100.00;91607.84;2564497;23;20005;-85
2022/12/16 03:18:36;;;;;;;34.70;19.83;;;;;;;-3.62;100.00;91609.34;2575148;23;20370;-84
2022/12/16 03:19:44;;;;;;;38.22;20.13;;;;;;;-3.60;100.00;91607.09;2562865;23;20056;-86
2022/12/16 03:21:10;;;;;;;35.22;20.10;;;;;;;-3.61;100.00;91603.75;2561683;23;20012;-85
2022/12/16 03:22:21;;;;;;;34.83;19.17;;;;;;;-3.64;100.00;91599.28;2574030;23;20444;-86
2022/12/16 03:24:00;;;;;;;35.30;19.70;;;;;;;-3.40;100.00;91605.72;2562751;23;20008;-86
2022/12/16 03:25:12;;;;;;;33.25;18.88;;;;;;;-3.45;100.00;91607.94;2524059;23;20010;-86
2022/12/16 03:26:35;;;;;;;33.13;18.50;;;;;;;-3.38;100.00;91613.19;2555165;23;20059;-85
2022/12/16 03:28:17;;;;;;;36.22;20.15;;;;;;;-3.57;100.00;91612.34;2556147;23;20009;-83
2022/12/16 03:29:58;;;;;;;35.83;18.85;;;;;;;-3.61;100.00;91605.59;2520798;23;20318;-84
2022/12/16 03:31:24;;;;;;;35.20;18.02;;;;;;;-3.56;100.00;91610.47;2516886;23;20007;-86
2022/12/16 03:32:30;;;;;;;37.95;19.50;;;;;;;-3.57;100.00;91612.34;2563497;23;20039;-83
2022/12/16 03:33:40;;;;;;;35.20;20.25;;;;;;;-3.60;100.00;91605.25;2553025;23;20032;-84
2022/12/16 03:34:54;;;;;;;41.90;21.27;;;;;;;-3.41;100.00;91613.94;2550765;23;20020;-84
2022/12/16 03:36:05;;;;;;;36.03;20.15;;;;;;;-3.46;100.00;91612.44;2550448;23;20006;-83
2022/12/16 03:37:10;;;;;;;32.28;19.83;;;;;;;-3.54;100.00;91616.09;2550270;23;20034;-83
2022/12/16 03:38:13;;;;;;;36.88;21.08;;;;;;;-3.63;100.00;91608.59;2558720;23;20363;-85
2022/12/16 03:39:18;;;;;;;35.50;20.65;;;;;;;-3.58;100.00;91613.47;2559364;23;20176;-85
2022/12/16 03:40:21;;;;;;;36.42;20.95;;;;;;;-3.56;100.00;91620.94;2558686;23;20004;-84
2022/12/16 03:41:27;;;;;;;38.63;21.25;;;;;;;-3.61;100.00;91618.66;2546746;23;20025;-84
2022/12/16 03:42:29;;;;;;;33.33;20.17;;;;;;;-3.57;100.00;91616.81;2548597;23;20031;-86
2022/12/16 03:43:31;;;;;;;38.08;21.95;;;;;;;-3.51;100.00;91622.44;2558065;23;20012;-86
2022/12/16 03:44:35;;;;;;;37.20;20.85;;;;;;;-3.59;100.00;91627.66;2545840;23;20067;-85
2022/12/16 03:45:39;;;;;;;38.35;20.35;;;;;;;-3.51;100.00;91625.06;2546812;23;20010;-85
2022/12/16 03:46:44;;;;;;;37.10;21.25;;;;;;;-3.53;100.00;91628.03;2559658;23;20075;-83
2022/12/16 03:47:52;;;;;;;37.03;21.45;;;;;;;-3.53;100.00;91628.03;2558770;23;20416;-86
2022/12/16 03:48:54;;;;;;;36.95;21.30;;;;;;;-3.52;100.00;91628.78;2561260;23;20056;-83
2022/12/16 03:49:59;;;;;;;39.40;21.83;;;;;;;-3.55;100.00;91636.25;2557749;23;20017;-84
2022/12/16 03:51:06;;;;;;;35.53;20.58;;;;;;;-3.57;100.00;91633.25;2560529;23;20001;-85
2022/12/16 03:52:10;;;;;;;40.70;22.10;;;;;;;-3.53;100.00;91633.25;2558269;23;20332;-85
2022/12/16 03:53:13;;;;;;;36.70;21.85;;;;;;;-3.53;100.00;91637.75;2546744;23;20025;-85
2022/12/16 03:54:17;;;;;;;36.78;21.95;;;;;;;-3.56;100.00;91633.97;2546561;23;20010;-86
2022/12/16 03:55:19;;;;;;;35.47;20.90;;;;;;;-3.55;100.00;91640.72;2547814;23;20001;-85
2022/12/16 03:56:21;;;;;;;38.10;20.95;;;;;;;-3.60;100.00;91636.59;2558633;23;20078;-83
2022/12/16 03:57:25;;;;;;;36.13;21.55;;;;;;;-3.63;100.00;91634.69;2558279;23;20088;-84
2022/12/16 03:58:28;;;;;;;35.75;21.35;;;;;;;-3.63;100.00;91644.41;2559080;23;20059;-85
2022/12/16 03:59:29;;;;;;;40.08;21.98;;;;;;;-3.63;100.00;91642.53;2558516;23;20004;-85
2022/12/16 04:00:32;;;;;;;37.60;22.17;;;;;;;-3.62;100.00;91643.28;2546123;23;20035;-86
2022/12/16 04:01:33;;;;;;;39.80;22.27;;;;;;;-3.57;100.00;91648.91;2546392;23;20009;-84
2022/12/16 04:02:34;;;;;;;39.75;22.55;;;;;;;-3.59;100.00;91651.16;2558300;23;20057;-84
2022/12/16 04:03:36;;;;;;;37.78;21.98;;;;;;;-3.66;100.00;91651.09;2558081;23;20428;-84
2022/12/16 04:04:38;;;;;;;40.22;21.80;;;;;;;-3.62;100.00;91651.13;2558543;23;20053;-86
2022/12/16 04:05:39;;;;;;;37.38;22.05;;;;;;;-3.55;100.00;91654.53;2570629;23;20443;-84
2022/12/16 04:06:43;;;;;;;38.13;22.20;;;;;;;-3.58;100.00;91649.28;2570431;23;20804;-84
2022/12/16 04:07:44;;;;;;;36.05;21.88;;;;;;;-3.55;100.00;91651.19;2570447;23;20091;-84
2022/12/16 04:08:50;;;;;;;37.80;22.35;;;;;;;-3.56;100.00;91657.47;2557936;23;20032;-83
2022/12/16 04:09:56;;;;;;;37.00;21.58;;;;;;;-3.59;100.00;91656.38;2570242;23;20009;-85
2022/12/16 04:25:37;;;;;;;31.55;19.25;;;;;;;-3.49;100.00;91683.66;2576358;23;20004;-85
2022/12/16 04:28:02;;;;;;;31.95;19.48;;;;;;;-3.59;100.00;91686.94;2567002;23;20012;-85
2022/12/16 04:29:06;;;;;;;33.40;19.70;;;;;;;-3.60;100.00;91695.88;2557801;23;20004;-85
2022/12/16 04:30:20;;;;;;;34.17;21.63;;;;;;;-3.56;100.00;91694.03;2547241;23;20309;-84
2022/12/16 04:31:22;;;;;;;33.90;20.00;;;;;;;-3.59;100.00;91690.31;2551183;23;20010;-85
2022/12/16 04:34:24;;;;;;;32.53;19.65;;;;;;;-3.61;100.00;91687.28;2559423;23;20008;-86
